Time;durP1;ratioP1;P1;durP2;ratioP2;P2;SDS_P1;SDS_P2;PMS_P1;PMS_P2;Temp;Humidity;BMP_temperature;BMP_pressure;BME280_temperature;BME280_humidity;BME280_pressure;Samples;Min_cycle;Max_cycle;Signal;HPM_P1;HPM_P2
2021/07/13 00:00:47;;;;;;;30.13;26.92;;;21.60;99.90;;;22.10;81.46;100914.50;5053686;28;20045;-66
2021/07/13 00:03:16;;;;;;;30.67;27.45;;;21.60;99.90;;;22.05;81.37;100911.13;5053641;28;20051;-66
2021/07/13 00:05:44;;;;;;;31.08;27.65;;;21.60;99.90;;;22.05;81.56;100908.44;5053242;28;20437;-67
2021/07/13 00:08:14;;;;;;;30.98;27.55;;;21.50;99.90;;;22.05;81.63;100908.44;5053502;28;20080;-66
2021/07/13 00:10:44;;;;;;;30.53;27.23;;;21.50;99.90;;;21.99;81.61;100908.78;5053475;28;20098;-66
2021/07/13 00:13:12;;;;;;;29.08;26.02;;;21.50;99.90;;;21.96;81.52;100909.81;5053392;28;20063;-66
2021/07/13 00:15:43;;;;;;;30.77;27.48;;;21.50;99.90;;;21.79;81.37;100912.44;5053418;28;20049;-66
2021/07/13 00:18:13;;;;;;;29.95;26.25;;;21.40;99.90;;;21.91;81.21;100927.16;5053108;28;20053;-66
2021/07/13 00:20:42;;;;;;;29.42;25.00;;;21.40;99.90;;;21.97;81.06;100929.53;5053320;28;20045;-67
2021/07/13 00:23:10;;;;;;;27.90;25.00;;;21.50;99.90;;;22.03;81.07;100931.91;5051975;28;20053;-66
2021/07/13 00:25:40;;;;;;;29.13;23.25;;;21.50;99.90;;;21.91;80.85;100941.47;5053131;28;20049;-66
2021/07/13 00:28:09;;;;;;;25.65;22.42;;;21.50;99.90;;;21.85;80.85;100946.31;5052959;28;20056;-66
2021/07/13 00:30:37;;;;;;;26.70;23.83;;;21.40;99.90;;;21.88;80.79;100940.75;5052949;28;20044;-67
2021/07/13 00:33:05;;;;;;;28.67;25.75;;;21.40;99.90;;;21.88;80.57;100938.94;5053096;28;20041;-66
2021/07/13 00:35:34;;;;;;;26.85;23.85;;;21.40;99.90;;;21.89;80.35;100924.50;5052872;28;20033;-66
2021/07/13 00:38:03;;;;;;;27.63;24.67;;;21.40;99.90;;;21.87;80.53;100922.88;5052716;28;20456;-67
2021/07/13 00:40:31;;;;;;;25.83;22.88;;;21.40;99.90;;;21.87;80.62;100929.13;5053042;28;20498;-66
2021/07/13 00:43:01;;;;;;;26.33;23.48;;;21.40;99.90;;;21.84;80.50;100934.66;5052991;28;20096;-66
2021/07/13 00:45:30;;;;;;;26.33;23.50;;;21.40;99.90;;;21.78;80.50;100934.91;5052946;28;20049;-66
2021/07/13 00:47:58;;;;;;;25.98;23.27;;;21.30;99.90;;;21.77;80.50;100927.81;5051660;28;20055;-66
2021/07/13 00:50:28;;;;;;;27.08;24.23;;;21.30;99.90;;;21.74;80.45;100932.47;5051444;28;20041;-71
2021/07/13 00:52:58;;;;;;;26.38;23.48;;;21.30;99.90;;;21.70;80.47;100936.25;5068756;28;20099;-71
2021/07/13 00:55:27;;;;;;;26.80;24.00;;;21.30;99.90;;;21.52;80.38;100917.34;5053135;28;20049;-71
2021/07/13 00:57:56;;;;;;;31.50;20.80;;;21.20;99.90;;;21.58;80.07;100928.78;5052662;28;20498;-71
2021/07/13 01:00:26;;;;;;;25.52;22.83;;;21.10;99.90;;;19.84;81.08;100678.88;5053207;28;20053;-71
2021/07/13 01:03:01;;;;;;;24.20;21.63;;;20.90;99.90;;;21.51;81.70;100931.75;5052955;28;20556;-71
2021/07/13 01:05:34;;;;;;;22.85;20.38;;;20.90;99.90;;;21.53;81.40;100931.69;5053183;28;20051;-71
2021/07/13 01:08:19;;;;;;;25.27;21.77;;;21.00;99.90;;;21.39;81.38;100920.69;5053153;28;20053;-71
2021/07/13 01:10:58;;;;;;;25.40;22.25;;;21.00;99.90;;;21.40;81.27;100930.53;5051871;28;20107;-71
2021/07/13 01:13:34;;;;;;;25.58;22.00;;;21.00;99.90;;;21.57;80.82;100933.28;5052889;28;20433;-71
2021/07/13 01:16:11;;;;;;;24.98;22.33;;;21.10;99.90;;;21.52;80.56;100911.97;5052986;28;20044;-71
2021/07/13 01:18:44;;;;;;;27.70;23.17;;;21.10;99.90;;;21.61;80.57;100932.19;5053036;28;20120;-71
2021/07/13 01:21:43;;;;;;;24.88;22.27;;;21.20;99.90;;;21.55;80.44;100929.78;5053010;28;20107;-71
2021/07/13 01:24:54;;;;;;;26.65;23.98;;;21.10;99.90;;;21.61;80.64;100926.81;5050255;28;20063;-71
2021/07/13 01:28:05;;;;;;;27.17;24.38;;;21.10;99.90;;;21.62;80.88;100930.38;5052631;28;20069;-71
2021/07/13 01:30:39;;;;;;;30.10;25.52;;;21.20;99.90;;;21.59;80.96;100944.84;5052943;28;20045;-71
2021/07/13 01:33:12;;;;;;;27.80;24.65;;;21.20;99.90;;;21.53;80.98;100946.03;5052941;28;20041;-71
2021/07/13 01:35:47;;;;;;;29.52;25.42;;;21.10;99.90;;;21.44;81.03;100943.78;5052855;28;20049;-71
2021/07/13 01:38:16;;;;;;;29.77;26.83;;;21.00;99.90;;;21.50;81.25;100940.78;5052821;28;20045;-71
2021/07/13 01:40:49;;;;;;;30.73;27.50;;;21.00;99.90;;;21.45;81.72;100923.09;5052761;28;20041;-71
2021/07/13 01:43:18;;;;;;;31.85;28.50;;;21.00;99.90;;;21.45;82.06;100926.66;5054249;28;20162;-71
2021/07/13 01:45:50;;;;;;;30.77;27.60;;;21.00;99.90;;;21.33;83.00;100926.41;5056791;28;20509;-71
2021/07/13 01:48:19;;;;;;;31.70;27.25;;;20.90;99.90;;;21.54;82.14;100928.06;5056506;28;20098;-71
2021/07/13 01:50:50;;;;;;;31.70;28.48;;;21.10;99.90;;;21.51;82.21;100931.75;5056508;28;20083;-71
2021/07/13 01:53:19;;;;;;;31.70;28.30;;;21.10;99.90;;;21.52;82.27;100927.25;5056469;28;20048;-71
2021/07/13 01:55:48;;;;;;;31.95;28.55;;;21.10;99.90;;;21.56;82.16;100939.63;5056217;28;20123;-71
2021/07/13 01:58:18;;;;;;;32.15;28.75;;;21.20;99.90;;;21.54;82.39;100938.84;5055995;28;20076;-71
2021/07/13 02:00:48;;;;;;;32.25;29.02;;;21.10;99.90;;;21.53;82.37;100929.00;5056077;28;20575;-72
2021/07/13 02:03:17;;;;;;;36.40;32.42;;;21.20;99.90;;;21.62;82.46;100931.25;5056247;28;20430;-71
2021/07/13 02:05:47;;;;;;;35.90;32.00;;;21.30;99.90;;;21.67;82.41;100931.00;5056131;28;20111;-71
2021/07/13 02:08:15;;;;;;;38.10;33.28;;;21.30;99.90;;;21.47;82.58;100899.66;5071511;28;20490;-71
2021/07/13 02:10:44;;;;;;;37.92;33.97;;;21.30;99.90;;;21.71;82.80;100936.19;5056068;28;20394;-71
2021/07/13 02:13:14;;;;;;;35.85;32.25;;;21.40;99.90;;;21.70;83.16;100942.50;5056014;28;20073;-71
2021/07/13 02:15:43;;;;;;;34.00;30.38;;;21.30;99.90;;;21.71;83.05;100938.00;5056028;28;20121;-71
2021/07/13 02:18:14;;;;;;;37.95;33.95;;;21.30;99.90;;;21.66;82.98;100932.81;5055949;28;20048;-71
2021/07/13 02:20:43;;;;;;;36.00;32.20;;;21.30;99.90;;;21.69;83.03;100934.50;5055863;28;20422;-71
2021/07/13 02:23:12;;;;;;;38.10;34.03;;;21.30;99.90;;;21.68;83.16;100928.22;5055894;28;20065;-71
2021/07/13 02:25:41;;;;;;;39.30;33.97;;;21.30;99.90;;;21.75;83.21;100929.69;5055463;28;20059;-71
2021/07/13 02:28:16;;;;;;;39.23;34.87;;;21.30;99.90;;;21.77;83.64;100932.31;5055574;28;20045;-71
2021/07/13 02:30:51;;;;;;;41.58;37.22;;;21.40;99.90;;;21.72;83.59;100919.06;5055776;28;20318;-71
2021/07/13 02:33:29;;;;;;;44.65;38.58;;;21.40;99.90;;;21.81;83.56;100924.06;5055757;28;20049;-71
2021/07/13 02:36:07;;;;;;;43.40;38.80;;;21.40;99.90;;;21.85;83.79;100912.19;5055668;28;20044;-71
2021/07/13 02:38:36;;;;;;;44.13;39.40;;;21.50;99.90;;;21.84;83.70;100906.84;5055578;28;20433;-71
2021/07/13 02:41:06;;;;;;;44.33;38.42;;;21.50;99.90;;;21.75;83.66;100896.50;5055484;28;20044;-71
2021/07/13 02:43:36;;;;;;;45.58;40.63;;;21.50;99.90;;;21.82;83.91;100908.72;5055521;28;20057;-71
2021/07/13 02:46:05;;;;;;;44.33;39.72;;;21.50;99.90;;;21.09;84.00;100769.69;5055531;28;20049;-71
2021/07/13 02:48:38;;;;;;;45.35;40.42;;;21.50;99.90;;;21.81;84.13;100904.31;5055654;28;20053;-71
2021/07/13 02:51:09;;;;;;;43.90;39.08;;;21.50;99.90;;;21.84;84.19;100910.41;5055375;28;20163;-71
2021/07/13 02:53:39;;;;;;;44.00;39.33;;;21.50;99.90;;;21.89;83.96;100916.44;5055228;28;20049;-71
2021/07/13 02:56:10;;;;;;;46.90;41.78;;;21.50;99.90;;;21.92;83.79;100919.00;5055220;28;20049;-71
2021/07/13 02:58:41;;;;;;;42.63;38.13;;;21.50;99.90;;;21.91;83.54;100922.63;5054870;28;20045;-71
2021/07/13 03:01:11;;;;;;;45.80;40.90;;;21.50;99.90;;;21.88;83.63;100906.63;5054944;28;20429;-71
2021/07/13 03:03:42;;;;;;;44.55;39.88;;;21.50;99.90;;;21.90;83.83;100907.41;5055147;28;20053;-71
2021/07/13 03:06:14;;;;;;;49.80;44.15;;;21.50;99.90;;;21.91;83.53;100895.69;5054846;28;20485;-71
2021/07/13 03:08:43;;;;;;;49.30;42.33;;;21.50;99.90;;;21.86;83.53;100892.34;5055102;28;20053;-71
2021/07/13 03:11:12;;;;;;;48.80;43.33;;;21.50;99.90;;;21.90;83.71;100907.41;5054942;28;20495;-71
2021/07/13 03:13:41;;;;;;;52.10;45.05;;;21.50;99.90;;;21.93;83.86;100917.19;5054937;28;20440;-71
2021/07/13 03:16:11;;;;;;;52.95;45.85;;;21.50;99.90;;;21.96;84.07;100923.28;5054815;28;20093;-71
2021/07/13 03:18:41;;;;;;;56.50;46.55;;;21.60;99.90;;;22.00;84.32;100903.31;5054898;28;20040;-71
2021/07/13 03:21:12;;;;;;;57.80;48.93;;;21.60;99.90;;;22.06;84.22;100907.50;5054698;28;20049;-71
2021/07/13 03:23:41;;;;;;;59.63;49.75;;;21.70;99.90;;;22.05;84.35;100901.25;5054791;28;20319;-71
2021/07/13 03:26:11;;;;;;;60.95;51.78;;;21.70;99.90;;;22.02;84.51;100912.19;5054294;28;20049;-71
2021/07/13 03:28:41;;;;;;;61.53;51.85;;;21.70;99.90;;;22.01;84.55;100914.97;5069939;28;20131;-71
2021/07/13 03:31:10;;;;;;;66.40;54.13;;;21.60;99.90;;;22.00;84.89;100906.00;5054561;28;20383;-71
2021/07/13 03:33:40;;;;;;;60.83;51.35;;;21.70;99.90;;;21.99;84.61;100904.25;5054530;28;20038;-71
2021/07/13 03:36:09;;;;;;;64.03;53.70;;;21.70;99.90;;;22.07;85.08;100918.22;5053482;28;20059;-71
2021/07/13 03:38:38;;;;;;;69.38;55.80;;;21.70;99.90;;;22.12;85.12;100924.25;5054430;28;20092;-71
2021/07/13 03:41:07;;;;;;;69.85;56.20;;;21.70;99.90;;;22.12;84.82;100924.25;5054286;28;20041;-71
2021/07/13 03:43:36;;;;;;;73.53;58.03;;;21.70;99.90;;;22.09;85.00;100923.50;5054314;28;20098;-71
2021/07/13 03:46:06;;;;;;;73.00;58.55;;;21.80;99.90;;;22.09;85.48;100935.16;5054052;28;20560;-71
2021/07/13 03:48:36;;;;;;;73.68;58.33;;;21.70;99.90;;;22.16;85.15;100925.81;5053030;28;20051;-71
2021/07/13 03:51:06;;;;;;;72.82;57.10;;;21.80;99.90;;;22.18;84.98;100932.00;5054496;28;20049;-71
2021/07/13 03:53:35;;;;;;;74.35;58.60;;;21.80;99.90;;;22.18;85.12;100929.31;5052955;28;20060;-71
2021/07/13 03:56:03;;;;;;;69.60;55.00;;;21.80;99.90;;;22.23;85.21;100927.25;5054070;28;20047;-71
2021/07/13 03:58:32;;;;;;;71.05;57.08;;;21.80;99.90;;;22.30;85.05;100927.81;5054107;28;20053;-71
2021/07/13 04:01:00;;;;;;;75.68;59.25;;;21.90;99.90;;;22.25;85.05;100914.59;5053963;28;20124;-72
2021/07/13 04:03:28;;;;;;;77.28;60.00;;;21.90;99.90;;;22.33;85.38;100923.16;5053957;28;20060;-71
2021/07/13 04:05:57;;;;;;;76.25;59.78;;;21.90;99.90;;;22.38;85.05;100920.19;5053382;28;20056;-71
2021/07/13 04:08:26;;;;;;;78.85;61.88;;;22.00;99.90;;;22.40;84.96;100929.06;5053917;28;20071;-70
2021/07/13 04:10:55;;;;;;;78.00;60.60;;;22.00;99.90;;;22.41;84.81;100930.84;5053886;28;20045;-79
2021/07/13 04:13:23;;;;;;;76.18;60.63;;;22.00;99.90;;;22.37;84.80;100932.81;5053576;28;20617;-71
2021/07/13 04:15:51;;;;;;;80.20;63.60;;;22.00;99.90;;;22.43;85.13;100937.03;5054074;28;20398;-72
2021/07/13 04:18:20;;;;;;;87.50;66.32;;;22.00;99.90;;;22.41;85.09;100937.06;5053692;28;20063;-72
2021/07/13 04:20:49;;;;;;;83.80;63.22;;;22.00;99.90;;;22.42;85.16;100943.34;5053554;28;20438;-73
2021/07/13 04:23:17;;;;;;;80.25;61.60;;;22.00;99.90;;;22.41;84.81;100947.84;5053623;28;20122;-73
2021/07/13 04:25:48;;;;;;;83.80;65.72;;;22.00;99.90;;;22.26;85.36;100920.84;5053543;28;20068;-72
2021/07/13 04:28:16;;;;;;;;;;;22.00;99.90;;;22.38;85.33;100952.53;5054053;28;20059;-72
2021/07/13 04:30:44;;;;;;;80.80;62.58;;;22.10;99.90;;;22.45;85.14;100952.13;5052238;28;20023;-73
2021/07/13 04:33:13;;;;;;;77.88;62.55;;;22.10;99.90;;;22.43;84.87;100951.34;5053426;28;20471;-72
2021/07/13 04:35:41;;;;;;;81.63;62.70;;;22.00;99.90;;;22.47;84.90;100956.59;5053185;28;20563;-72
2021/07/13 04:38:09;;;;;;;76.30;60.28;;;22.10;99.90;;;22.48;84.69;100953.81;5053424;28;20041;-72
2021/07/13 04:40:38;;;;;;;77.88;62.85;;;22.10;99.90;;;22.50;84.42;100961.81;5068707;28;20185;-72
2021/07/13 04:43:08;;;;;;;79.80;62.80;;;22.10;99.90;;;22.47;84.79;100960.19;5053318;28;20132;-72
2021/07/13 04:45:36;;;;;;;77.03;60.40;;;22.10;99.90;;;22.45;84.79;100954.84;5053034;28;20048;-72
2021/07/13 04:48:05;;;;;;;73.82;59.05;;;22.00;99.90;;;22.49;84.35;100954.69;5068756;28;20088;-72
2021/07/13 04:50:34;;;;;;;75.15;60.10;;;22.10;99.90;;;22.53;84.28;100961.69;5053292;28;20049;-72
2021/07/13 04:53:03;;;;;;;74.70;58.50;;;22.10;99.90;;;22.53;84.51;100954.44;5053241;28;20041;-72
2021/07/13 04:55:31;;;;;;;77.05;60.03;;;22.20;99.90;;;22.54;84.59;100963.41;5053057;28;20045;-73
2021/07/13 04:58:00;;;;;;;76.88;59.92;;;22.10;99.90;;;22.50;84.48;100945.63;5053309;28;20081;-72
2021/07/13 05:00:29;;;;;;;71.03;57.33;;;22.20;99.90;;;22.62;84.25;100972.00;5053134;28;20075;-73
2021/07/13 05:02:58;;;;;;;71.17;57.60;;;22.30;99.90;;;22.59;84.08;100970.34;5053100;28;20132;-73
2021/07/13 05:05:27;;;;;;;77.13;58.92;;;22.20;99.90;;;22.50;83.93;100956.41;5052826;28;20287;-72
2021/07/13 05:07:55;;;;;;;67.82;55.10;;;22.20;99.90;;;22.65;83.95;100972.72;5053122;28;20056;-73
2021/07/13 05:10:24;;;;;;;69.53;57.65;;;22.20;99.90;;;22.66;83.80;100979.00;5052995;28;20052;-73
2021/07/13 05:12:52;;;;;;;69.45;55.45;;;22.30;99.90;;;22.57;83.77;100971.38;5053075;28;20072;-73
2021/07/13 05:15:20;;;;;;;68.32;54.40;;;22.20;99.90;;;22.66;83.38;100985.25;5052983;28;20072;-72
2021/07/13 05:17:50;;;;;;;67.97;55.22;;;22.30;99.90;;;22.66;83.47;100989.78;5053591;28;20041;-72
2021/07/13 05:20:19;;;;;;;71.47;57.70;;;22.30;99.90;;;22.66;83.53;100984.38;5056849;28;20084;-72
2021/07/13 05:22:48;;;;;;;66.30;53.50;;;22.30;99.90;;;22.66;83.18;100989.78;5056899;28;20080;-72
2021/07/13 05:25:17;;;;;;;71.22;55.53;;;22.30;99.90;;;22.68;83.34;100985.19;5056653;28;20106;-72
2021/07/13 05:27:46;;;;;;;66.03;52.40;;;22.30;99.90;;;22.69;83.29;100984.22;5057068;28;20060;-72
2021/07/13 05:30:17;;;;;;;65.03;53.75;;;22.30;99.90;;;22.67;83.19;100984.28;5056464;28;20045;-72
2021/07/13 05:32:45;;;;;;;;;;;22.30;99.90;;;22.70;83.32;101002.16;5057194;28;20394;-72
2021/07/13 05:35:15;;;;;;;64.20;52.92;;;22.40;99.90;;;22.75;83.13;100978.50;5056669;28;19920;-72
2021/07/13 05:37:44;;;;;;;68.07;55.67;;;22.40;99.90;;;22.74;82.91;100982.16;5072056;28;20053;-72
2021/07/13 05:40:13;;;;;;;65.38;52.67;;;22.40;99.90;;;22.74;83.03;100977.66;5056475;28;20072;-72
2021/07/13 05:42:43;;;;;;;64.18;53.05;;;22.40;99.90;;;22.72;82.88;100976.84;5056531;28;20103;-72
2021/07/13 05:45:13;;;;;;;63.70;52.03;;;22.40;99.90;;;22.76;83.03;100980.25;5056546;28;20128;-72
2021/07/13 05:47:41;;;;;;;64.20;51.10;;;22.40;99.90;;;22.75;82.65;100987.47;5056437;28;20433;-72
2021/07/13 05:50:11;;;;;;;66.78;54.70;;;22.40;99.90;;;22.63;82.98;100990.81;5056443;28;20507;-72
2021/07/13 05:52:42;;;;;;;68.30;54.05;;;22.30;99.90;;;22.78;83.07;100998.13;5056496;28;20052;-73
2021/07/13 05:55:11;;;;;;;69.75;53.80;;;22.40;99.90;;;22.78;82.87;100983.75;5056386;28;20045;-72
2021/07/13 05:57:40;;;;;;;72.10;55.42;;;22.40;99.90;;;22.79;83.04;100982.78;5056193;28;20099;-73
2021/07/13 06:00:11;;;;;;;71.90;56.25;;;22.40;99.90;;;22.78;82.83;100986.44;5055938;28;20071;-72
2021/07/13 06:02:44;;;;;;;69.60;55.13;;;22.40;99.90;;;22.79;82.68;100996.25;5056243;28;20050;-72
2021/07/13 06:05:13;;;;;;;64.88;51.25;;;22.40;99.90;;;22.75;82.79;100990.16;5056182;28;20095;-73
2021/07/13 06:07:48;;;;;;;66.28;53.05;;;22.40;99.90;;;22.74;82.88;100998.34;5056125;28;20049;-72
2021/07/13 06:10:19;;;;;;;67.53;52.60;;;22.40;99.90;;;22.67;82.88;100988.81;5056173;28;20041;-72
2021/07/13 06:12:48;;;;;;;60.78;48.97;;;22.30;99.90;;;22.62;82.92;100966.63;5071495;28;20049;-73
2021/07/13 06:15:17;;;;;;;60.53;48.65;;;22.40;99.90;;;22.72;82.92;100990.34;5055954;28;20076;-72
2021/07/13 06:17:45;;;;;;;59.03;47.60;;;22.40;99.90;;;22.70;82.72;100997.63;5055925;28;20052;-72
2021/07/13 06:20:15;;;;;;;60.05;46.95;;;22.40;99.90;;;22.79;82.31;100996.25;5055916;28;20045;-72
2021/07/13 06:22:45;;;;;;;59.55;47.58;;;22.40;99.90;;;22.82;82.01;100994.28;5055754;28;20040;-72
2021/07/13 06:25:14;;;;;;;55.30;45.13;;;22.50;99.90;;;22.68;81.90;100971.69;5055558;28;20077;-73
2021/07/13 06:27:43;;;;;;;54.10;44.60;;;22.40;99.90;;;22.79;81.88;100980.97;5055298;28;20056;-73
2021/07/13 06:30:14;;;;;;;53.75;43.63;;;22.50;99.90;;;22.82;82.05;100990.72;5054918;28;20068;-72
2021/07/13 06:32:42;;;;;;;55.38;45.97;;;22.50;99.90;;;22.85;81.87;100990.56;5055663;28;20045;-73
2021/07/13 06:35:12;;;;;;;54.17;44.83;;;22.50;99.90;;;22.77;81.83;100973.88;5055393;28;20417;-72
2021/07/13 06:37:41;;;;;;;55.50;45.38;;;22.50;99.90;;;22.92;81.69;100991.97;5055576;28;20041;-71
2021/07/13 06:40:15;;;;;;;50.05;41.58;;;22.60;99.90;;;22.39;81.29;100887.78;5055210;28;20132;-75
2021/07/13 06:42:44;;;;;;;56.42;43.75;;;22.60;99.90;;;22.98;81.25;101002.44;5055112;28;20036;-72
2021/07/13 06:45:13;;;;;;;51.35;42.85;;;22.60;99.90;;;23.05;81.26;100998.47;5057734;28;20444;-73
2021/07/13 06:47:41;;;;;;;49.47;41.05;;;22.70;99.90;;;23.08;81.07;100999.16;5055373;28;20037;-75
2021/07/13 06:50:11;;;;;;;49.65;40.25;;;22.70;99.90;;;23.09;80.92;101000.91;5055339;28;20041;-77
2021/07/13 06:52:39;;;;;;;51.85;41.60;;;22.70;99.90;;;23.04;80.60;100996.72;5055548;28;20041;-73
2021/07/13 06:55:11;;;;;;;48.78;41.75;;;22.80;99.90;;;23.08;80.68;101011.78;5054904;28;20075;-72
2021/07/13 06:57:39;;;;;;;50.70;40.40;;;22.70;99.90;;;23.09;80.22;101002.75;5054660;28;20079;-73
2021/07/13 07:00:10;;;;;;;50.53;42.25;;;22.70;99.90;;;22.97;80.34;100989.91;5055034;28;20512;-73
2021/07/13 07:02:39;;;;;;;54.55;44.05;;;22.80;99.90;;;23.14;79.82;101008.75;5055038;28;20052;-72
2021/07/13 07:05:09;;;;;;;57.80;44.65;;;22.80;99.90;;;23.05;79.93;101009.25;5053725;28;20057;-72
2021/07/13 07:07:45;;;;;;;65.25;47.75;;;22.80;99.90;;;23.05;80.04;101020.06;5054663;28;20052;-72
2021/07/13 07:10:16;;;;;;;64.68;48.50;;;22.70;99.90;;;23.07;79.58;101013.59;5054955;28;20445;-73
2021/07/13 07:12:45;;;;;;;68.40;49.97;;;22.80;99.90;;;22.93;79.73;100999.13;5054572;28;20052;-73
2021/07/13 07:15:15;;;;;;;68.30;48.20;;;22.70;99.90;;;22.96;79.97;101021.41;5054565;28;20041;-72
2021/07/13 07:17:46;;;;;;;70.40;51.90;;;22.70;99.90;;;22.79;80.29;101015.16;5054788;28;20052;-73
2021/07/13 07:20:16;;;;;;;68.65;48.85;;;22.50;99.90;;;22.67;80.31;101007.69;5054490;28;20040;-73
2021/07/13 07:22:44;;;;;;;76.20;52.78;;;22.50;99.90;;;22.75;80.17;101021.66;5054297;28;20041;-72
2021/07/13 07:25:15;;;;;;;73.53;51.60;;;22.50;99.90;;;22.72;80.11;101027.22;5054546;28;20033;-72
2021/07/13 07:27:45;;;;;;;71.95;50.15;;;22.50;99.90;;;22.48;80.08;100987.97;5054319;28;20053;-76
2021/07/13 07:30:16;;;;;;;73.07;50.58;;;22.40;99.90;;;22.59;80.60;101029.66;5054614;28;20067;-75
2021/07/13 07:32:45;;;;;;;71.88;49.53;;;22.30;99.90;;;22.58;80.83;101035.13;5054484;28;20429;-75
2021/07/13 07:35:15;;;;;;;71.75;48.40;;;22.30;99.90;;;22.48;81.07;101010.44;5054409;28;20045;-78
2021/07/13 07:37:46;;;;;;;71.23;47.47;;;22.30;99.90;;;22.58;81.23;101033.31;5054267;28;20049;-78
2021/07/13 07:40:20;;;;;;;67.03;46.80;;;22.30;99.90;;;22.44;81.24;101034.00;5053444;28;20359;-77
2021/07/13 07:42:51;;;;;;;66.20;46.85;;;22.10;99.90;;;22.51;81.28;101044.47;5054014;28;20406;-76
2021/07/13 07:45:20;;;;;;;67.93;46.03;;;22.20;99.90;;;22.33;81.67;101046.25;5054070;28;20045;-79
2021/07/13 07:47:50;;;;;;;65.72;45.80;;;22.10;99.90;;;22.38;81.64;101049.59;5054278;28;20071;-80
2021/07/13 07:50:21;;;;;;;68.93;46.45;;;22.10;99.90;;;22.38;81.68;101049.59;5054356;28;20052;-79
2021/07/13 07:52:50;;;;;;;68.78;46.60;;;22.10;99.90;;;22.38;82.08;101058.56;5053857;28;20102;-78
2021/07/13 07:55:21;;;;;;;68.65;46.92;;;22.10;99.90;;;22.41;81.78;101054.84;5053925;28;20052;-71
2021/07/13 07:57:50;;;;;;;70.05;47.85;;;22.10;99.90;;;22.50;81.67;101040.00;5053421;28;20056;-73
2021/07/13 08:00:20;;;;;;;73.53;48.17;;;22.20;99.90;;;22.39;81.43;101046.84;5053752;28;20044;-73
2021/07/13 08:02:48;;;;;;;70.88;47.45;;;22.20;99.90;;;22.42;80.98;101041.28;5053869;28;20048;-67
2021/07/13 08:05:17;;;;;;;65.45;45.10;;;22.20;99.90;;;22.41;80.93;101050.31;5052591;28;20052;-76
2021/07/13 08:07:47;;;;;;;63.28;45.25;;;22.10;99.90;;;22.38;80.94;101054.97;5053880;28;20057;-75
2021/07/13 08:10:16;;;;;;;67.47;47.15;;;22.10;99.90;;;22.37;81.09;101048.75;5069319;28;20045;-76
2021/07/13 08:12:46;;;;;;;69.35;49.08;;;22.10;99.90;;;22.27;81.00;101019.63;5053872;28;20095;-76
2021/07/13 08:15:16;;;;;;;68.25;46.85;;;22.10;99.90;;;22.29;80.78;101050.06;5053767;28;20060;-76
2021/07/13 08:17:45;;;;;;;67.47;46.40;;;22.10;99.90;;;22.36;80.38;101051.50;5053735;28;20045;-75
2021/07/13 08:20:15;;;;;;;70.93;47.78;;;22.10;99.90;;;22.27;81.20;101052.84;5053506;28;20075;-76
2021/07/13 08:22:46;;;;;;;60.42;42.47;;;22.00;99.90;;;22.36;81.26;101057.75;5053607;28;20045;-76
2021/07/13 08:25:16;;;;;;;63.60;43.03;;;22.10;99.90;;;22.41;80.70;101061.09;5053664;28;20044;-76
2021/07/13 08:27:46;;;;;;;61.45;42.33;;;22.10;99.90;;;22.35;80.55;101056.03;5068872;28;20060;-76
2021/07/13 08:30:16;;;;;;;60.92;42.08;;;22.10;99.90;;;22.34;80.47;101051.56;5053227;28;20045;-76
2021/07/13 08:32:45;;;;;;;58.30;43.07;;;22.10;99.90;;;22.29;80.33;101050.94;5053253;28;20509;-75
2021/07/13 08:35:14;;;;;;;65.15;44.45;;;22.00;99.90;;;22.24;80.04;101052.97;5053477;28;20106;-75
2021/07/13 08:37:42;;;;;;;65.38;44.38;;;22.00;99.90;;;22.25;80.18;101048.47;5053331;28;20147;-76
2021/07/13 08:40:12;;;;;;;58.45;43.42;;;22.00;99.90;;;22.23;79.94;101048.56;5053393;28;20080;-76
2021/07/13 08:42:43;;;;;;;57.67;42.33;;;22.00;99.90;;;22.30;80.19;101058.06;5053606;28;20056;-76
2021/07/13 08:45:16;;;;;;;54.38;39.83;;;22.00;99.90;;;22.35;79.96;101061.44;5053375;28;20048;-76
2021/07/13 08:47:48;;;;;;;55.33;39.88;;;22.10;99.90;;;22.35;80.08;101055.16;5053399;28;20052;-75
2021/07/13 08:50:18;;;;;;;53.63;41.20;;;22.10;99.90;;;22.21;79.97;101041.47;5068849;28;20052;-76
2021/07/13 08:52:48;;;;;;;51.63;38.58;;;22.00;99.90;;;22.21;80.13;101046.88;5052848;28;20390;-75
2021/07/13 08:55:16;;;;;;;53.58;38.03;;;22.00;99.90;;;22.29;80.37;101053.63;5053251;28;20045;-75
2021/07/13 08:57:46;;;;;;;48.80;37.63;;;22.00;99.90;;;22.37;80.02;101048.75;5053090;28;20060;-75
2021/07/13 09:00:19;;;;;;;50.65;37.33;;;22.10;99.90;;;22.39;80.07;101046.84;5053272;28;20467;-75
2021/07/13 09:03:12;;;;;;;53.53;38.38;;;22.20;99.90;;;22.46;79.94;101050.09;5053163;28;20072;-75
2021/07/13 09:05:49;;;;;;;53.33;38.67;;;22.20;99.90;;;22.53;79.58;101053.34;5053077;28;20141;-75
2021/07/13 09:08:24;;;;;;;59.08;41.97;;;22.30;99.90;;;22.25;79.32;101041.25;5052912;28;20045;-76
2021/07/13 09:11:01;;;;;;;60.17;43.03;;;22.30;99.90;;;22.54;79.40;101053.28;5051820;28;20441;-75
2021/07/13 09:13:34;;;;;;;58.42;40.50;;;22.30;99.90;;;22.62;79.10;101053.78;5052863;28;20107;-75
2021/07/13 09:16:06;;;;;;;54.95;39.65;;;22.40;99.90;;;21.98;79.13;100952.81;5053088;28;20041;-76
2021/07/13 09:18:37;;;;;;;57.15;39.63;;;22.30;99.90;;;22.66;79.41;101050.00;5053058;28;20040;-75
2021/07/13 09:21:24;;;;;;;56.05;40.38;;;22.40;99.90;;;22.72;79.28;101054.19;5052648;28;20072;-75
2021/07/13 09:24:12;;;;;;;58.15;42.40;;;22.40;99.90;;;22.67;79.49;101049.03;5050696;28;20482;-75
2021/07/13 09:26:47;;;;;;;54.97;40.08;;;22.40;99.90;;;22.74;78.70;101053.16;5053027;28;20072;-75
2021/07/13 09:29:46;;;;;;;54.20;40.03;;;22.50;99.90;;;22.70;79.13;101056.09;5052671;28;20045;-75
2021/07/13 09:32:29;;;;;;;53.95;39.30;;;22.40;99.90;;;22.41;78.95;101011.72;5052620;28;20037;-76
2021/07/13 09:35:01;;;;;;;57.83;42.42;;;22.40;99.90;;;22.71;79.51;101047.91;5052850;28;20624;-75
2021/07/13 09:37:32;;;;;;;59.25;41.85;;;22.40;99.90;;;22.59;79.13;101063.88;5052735;28;20076;-76
2021/07/13 09:40:05;;;;;;;;;;;22.30;99.90;;;22.69;78.98;101060.59;5053237;28;20052;-76
2021/07/13 09:42:36;;;;;;;58.53;43.10;;;22.50;99.90;;;22.71;79.25;101058.72;5052737;28;19975;-76
2021/07/13 09:45:21;;;;;;;55.13;41.13;;;22.50;99.90;;;22.74;79.55;101061.28;5053123;28;20041;-75
2021/07/13 09:47:54;;;;;;;55.70;38.90;;;22.50;99.90;;;22.77;79.43;101062.91;5053066;28;20103;-76
2021/07/13 09:50:39;;;;;;;59.55;39.75;;;22.50;99.90;;;22.86;79.25;101062.47;5052675;28;20049;-76
2021/07/13 09:53:10;;;;;;;54.55;39.92;;;22.60;99.90;;;22.87;78.93;101066.88;5052407;28;20091;-76
2021/07/13 09:55:39;;;;;;;54.38;37.75;;;22.60;99.90;;;22.89;78.07;101064.97;5068010;28;20052;-76
2021/07/13 09:58:16;;;;;;;50.13;37.42;;;22.60;99.90;;;22.90;78.04;101061.34;5052293;28;20057;-75
2021/07/13 10:00:48;;;;;;;46.90;35.17;;;22.70;99.90;;;22.97;77.46;101060.94;5052413;28;20486;-75
2021/07/13 10:03:19;;;;;;;46.90;35.33;;;22.70;99.90;;;22.89;78.04;101056.88;5068003;28;20486;-74
2021/07/13 10:05:51;;;;;;;39.58;32.13;;;22.70;99.90;;;23.05;77.36;101047.88;5071309;28;20378;-76
2021/07/13 10:08:21;;;;;;;35.95;28.77;;;22.80;99.90;;;23.04;76.67;101062.34;5056171;28;20041;-76
2021/07/13 10:10:51;;;;;;;38.20;27.00;;;22.80;99.90;;;22.41;76.51;100937.06;5055859;28;20494;-76
2021/07/13 10:13:20;;;;;;;32.67;25.50;;;22.80;99.90;;;23.10;76.13;101062.03;5056098;28;20498;-76
2021/07/13 10:15:50;;;;;;;36.10;25.88;;;22.90;99.90;;;22.39;76.05;100949.78;5056002;28;20063;-76